Time;durP1;ratioP1;P1;durP2;ratioP2;P2;SDS_P1;SDS_P2;PMS_P1;PMS_P2;Temp;Humidity;BMP_temperature;BMP_pressure;BME280_temperature;BME280_humidity;BME280_pressure;Samples;Min_cycle;Max_cycle;Signal;HPM_P1;HPM_P2
2021/05/15 00:02:14;;;;;;;1.23;1.13;;;;;;;;;;5094261;28;20459;-78
2021/05/15 00:04:42;;;;;;;4.30;1.20;;;;;;;;;;5078344;28;20489;-77
2021/05/15 00:07:11;;;;;;;3.73;1.73;;;;;;;;;;5096232;28;20397;-76
2021/05/15 00:09:39;;;;;;;3.00;1.20;;;;;;;;;;5094414;28;20386;-76
2021/05/15 00:12:05;;;;;;;1.00;0.80;;;;;;;;;;5077344;28;21070;-76
2021/05/15 00:14:31;;;;;;;3.13;1.10;;;;;;;;;;5076989;28;20504;-77
2021/05/15 00:16:59;;;;;;;8.70;2.20;;;;;;;;;;5094698;28;20436;-76
2021/05/15 00:19:25;;;;;;;1.33;1.23;;;;;;;;;;5075772;28;20439;-75
2021/05/15 00:21:51;;;;;;;5.20;2.10;;;;;;;;;;5094448;28;20379;-76
2021/05/15 00:24:17;;;;;;;2.73;1.27;;;;;;;;;;5075988;28;21000;-76
2021/05/15 00:26:43;;;;;;;4.53;2.50;;;;;;;;;;5094526;28;20433;-77
2021/05/15 00:29:09;;;;;;;1.00;0.77;;;;;;;;;;5093831;28;20971;-76
2021/05/15 00:31:36;;;;;;;4.97;1.23;;;;;;;;;;5094446;28;20403;-77
2021/05/15 00:34:04;;;;;;;1.73;1.00;;;;;;;;;;5093938;28;20436;-76
2021/05/15 00:36:32;;;;;;;2.13;1.53;;;;;;;;;;5094358;28;20807;-76
2021/05/15 00:38:58;;;;;;;2.90;1.23;;;;;;;;;;5056005;28;20416;-76
2021/05/15 00:41:26;;;;;;;4.40;1.87;;;;;;;;;;5073908;28;20401;-76
2021/05/15 00:46:38;;;;;;;1.53;1.43;;;;;;;;;;5084984;28;20397;-75
2021/05/15 00:49:05;;;;;;;2.80;2.23;;;;;;;;;;5086336;28;20426;-76
2021/05/15 00:51:32;;;;;;;2.97;1.57;;;;;;;;;;5084875;28;20497;-75
2021/05/15 00:53:58;;;;;;;4.17;1.07;;;;;;;;;;5082999;28;20436;-76
2021/05/15 00:56:28;;;;;;;1.90;1.40;;;;;;;;;;5082101;28;20386;-75
2021/05/15 00:58:56;;;;;;;1.80;1.33;;;;;;;;;;5075852;28;20641;-75
2021/05/15 01:01:25;;;;;;;4.00;1.97;;;;;;;;;;5094251;28;20510;-74
2021/05/15 01:03:51;;;;;;;2.97;2.20;;;;;;;;;;5083956;28;20513;-76
2021/05/15 01:06:17;;;;;;;0.70;0.50;;;;;;;;;;5056305;28;20414;-76
2021/05/15 01:08:47;;;;;;;1.83;1.53;;;;;;;;;;5073536;28;20740;-75
2021/05/15 01:11:19;;;;;;;3.20;2.03;;;;;;;;;;5073361;28;20428;-75
2021/05/15 01:13:57;;;;;;;4.60;2.03;;;;;;;;;;5082207;28;20417;-76
2021/05/15 01:16:23;;;;;;;5.03;2.47;;;;;;;;;;5092489;28;20455;-75
2021/05/15 01:18:52;;;;;;;4.30;1.73;;;;;;;;;;5093265;28;20569;-76
2021/05/15 01:21:18;;;;;;;3.93;2.33;;;;;;;;;;5093494;28;20414;-75
2021/05/15 01:23:44;;;;;;;4.60;1.47;;;;;;;;;;5093385;28;21147;-75
2021/05/15 01:26:14;;;;;;;1.63;1.17;;;;;;;;;;5093685;28;20435;-76
2021/05/15 01:28:45;;;;;;;2.97;1.70;;;;;;;;;;5093322;28;20405;-75
2021/05/15 01:31:12;;;;;;;1.30;1.13;;;;;;;;;;5093534;28;20936;-75
2021/05/15 01:33:38;;;;;;;2.07;1.53;;;;;;;;;;5068079;28;20884;-75
2021/05/15 01:36:04;;;;;;;1.60;1.30;;;;;;;;;;5073159;28;20404;-75
2021/05/15 01:38:30;;;;;;;4.27;1.30;;;;;;;;;;5073323;28;20466;-75
2021/05/15 01:41:01;;;;;;;3.33;1.47;;;;;;;;;;5064970;28;20375;-81
2021/05/15 01:43:27;;;;;;;2.33;1.70;;;;;;;;;;5092568;28;20460;-81
2021/05/15 01:45:53;;;;;;;3.40;3.10;;;;;;;;;;5063185;28;20425;-80
2021/05/15 01:48:19;;;;;;;4.47;1.73;;;;;;;;;;5096581;28;20399;-79
2021/05/15 01:51:15;;;;;;;1.50;0.97;;;;;;;;;;5097296;28;20400;-79
2021/05/15 01:53:42;;;;;;;3.83;2.20;;;;;;;;;;5080996;28;21118;-82
2021/05/15 01:56:09;;;;;;;4.83;1.73;;;;;;;;;;5105570;22;20492;-72
2021/05/15 01:58:36;;;;;;;5.23;1.83;;;;;;;;;;5084460;28;20439;-71
2021/05/15 02:01:02;;;;;;;3.77;1.70;;;;;;;;;;5091534;28;20433;-70
2021/05/15 02:03:28;;;;;;;1.20;1.10;;;;;;;;;;5092203;28;20455;-71
2021/05/15 02:05:54;;;;;;;8.90;1.83;;;;;;;;;;5073569;28;20987;-71
2021/05/15 02:08:21;;;;;;;8.57;2.20;;;;;;;;;;5092410;28;20470;-72
2021/05/15 02:10:48;;;;;;;2.03;1.57;;;;;;;;;;5114209;22;20487;-69
2021/05/15 02:13:14;;;;;;;1.90;1.20;;;;;;;;;;5111248;28;20426;-70
2021/05/15 02:15:40;;;;;;;3.90;1.73;;;;;;;;;;5100747;28;20792;-69
2021/05/15 02:18:07;;;;;;;8.90;2.77;;;;;;;;;;5091813;28;20443;-71
2021/05/15 02:20:36;;;;;;;3.00;1.73;;;;;;;;;;5090950;28;20476;-69
2021/05/15 02:23:02;;;;;;;4.00;3.13;;;;;;;;;;5091832;28;20738;-68
2021/05/15 02:25:28;;;;;;;1.57;1.30;;;;;;;;;;5091358;28;20395;-70
2021/05/15 02:27:54;;;;;;;8.63;1.90;;;;;;;;;;5091059;28;20396;-69
2021/05/15 02:30:22;;;;;;;7.60;3.17;;;;;;;;;;5091221;28;20791;-70
2021/05/15 02:32:48;;;;;;;3.70;0.97;;;;;;;;;;5091136;28;20907;-69
2021/05/15 02:35:14;;;;;;;2.73;2.57;;;;;;;;;;5091407;28;20524;-69
2021/05/15 02:37:41;;;;;;;5.07;1.70;;;;;;;;;;5088573;28;20390;-68
2021/05/15 02:40:07;;;;;;;3.43;1.80;;;;;;;;;;5080548;28;20436;-68
2021/05/15 02:42:34;;;;;;;4.00;2.47;;;;;;;;;;5091491;28;20434;-69
2021/05/15 02:45:00;;;;;;;2.53;2.33;;;;;;;;;;5090141;28;20434;-69
2021/05/15 02:47:26;;;;;;;1.70;1.60;;;;;;;;;;5089964;28;20540;-68
2021/05/15 02:49:52;;;;;;;5.80;3.13;;;;;;;;;;5089990;28;20414;-69
2021/05/15 02:52:18;;;;;;;2.93;1.47;;;;;;;;;;5095594;28;20416;-69
2021/05/15 02:54:44;;;;;;;1.67;1.33;;;;;;;;;;5070945;28;20415;-68
2021/05/15 02:57:10;;;;;;;2.23;1.20;;;;;;;;;;5091369;28;20446;-68
2021/05/15 02:59:36;;;;;;;1.97;1.87;;;;;;;;;;5089870;28;20419;-68
2021/05/15 03:02:03;;;;;;;3.30;1.40;;;;;;;;;;5090967;28;20388;-70
2021/05/15 03:04:29;;;;;;;2.83;1.40;;;;;;;;;;5090690;28;20463;-70
2021/05/15 03:06:55;;;;;;;3.60;1.73;;;;;;;;;;5090928;28;20434;-70
2021/05/15 03:09:21;;;;;;;4.70;1.97;;;;;;;;;;5089553;28;20435;-71
2021/05/15 03:11:47;;;;;;;1.77;1.00;;;;;;;;;;5090983;28;20403;-71
2021/05/15 03:14:13;;;;;;;3.10;1.10;;;;;;;;;;5090931;28;20401;-69
2021/05/15 03:16:39;;;;;;;5.73;2.97;;;;;;;;;;5072484;28;20416;-69
2021/05/15 03:19:05;;;;;;;2.70;1.30;;;;;;;;;;5090211;28;20404;-67
2021/05/15 03:21:31;;;;;;;4.37;1.87;;;;;;;;;;5090292;28;20481;-69
2021/05/15 03:23:57;;;;;;;1.93;1.07;;;;;;;;;;5088724;28;20863;-70
2021/05/15 03:26:23;;;;;;;2.80;1.10;;;;;;;;;;5090685;28;20424;-69
2021/05/15 03:28:49;;;;;;;1.90;1.80;;;;;;;;;;5090438;28;20412;-69
2021/05/15 03:31:15;;;;;;;2.33;1.70;;;;;;;;;;5089799;28;20499;-69
2021/05/15 03:33:41;;;;;;;5.33;2.17;;;;;;;;;;5090686;28;20408;-69
2021/05/15 03:36:07;;;;;;;2.60;1.37;;;;;;;;;;5090236;28;20390;-70
2021/05/15 03:38:33;;;;;;;2.20;1.50;;;;;;;;;;5089810;28;20376;-69
2021/05/15 03:40:59;;;;;;;1.27;1.17;;;;;;;;;;5089107;28;20426;-70
2021/05/15 03:43:25;;;;;;;3.77;1.77;;;;;;;;;;5090442;28;20429;-69
2021/05/15 03:45:51;;;;;;;5.57;1.93;;;;;;;;;;5089898;28;20380;-69
2021/05/15 03:48:21;;;;;;;4.47;2.43;;;;;;;;;;5090561;28;20393;-70
2021/05/15 03:50:50;;;;;;;1.33;0.90;;;;;;;;;;5088943;28;20436;-70
2021/05/15 03:53:16;;;;;;;3.27;1.43;;;;;;;;;;5089696;28;20470;-69
2021/05/15 03:55:42;;;;;;;1.87;1.33;;;;;;;;;;5087551;28;20445;-70
2021/05/15 03:58:08;;;;;;;2.00;1.60;;;;;;;;;;5070080;28;20441;-69
2021/05/15 04:00:34;;;;;;;3.60;1.60;;;;;;;;;;5085033;28;20467;-69
2021/05/15 04:03:00;;;;;;;2.20;2.00;;;;;;;;;;5090203;28;20411;-69
2021/05/15 04:05:26;;;;;;;3.17;1.40;;;;;;;;;;5090012;28;20391;-67
2021/05/15 04:07:53;;;;;;;3.57;1.27;;;;;;;;;;5072298;28;20447;-69
2021/05/15 04:10:19;;;;;;;3.53;1.80;;;;;;;;;;5089175;28;20785;-68
2021/05/15 04:13:01;;;;;;;1.93;1.40;;;;;;;;;;5090430;28;20398;-69
2021/05/15 04:18:22;;;;;;;1.40;0.90;;;;;;;;;;5034868;28;20414;-69
2021/05/15 04:20:48;;;;;;;5.03;1.90;;;;;;;;;;5088849;28;20929;-70
2021/05/15 04:23:14;;;;;;;4.10;1.80;;;;;;;;;;5084433;28;20542;-70
2021/05/15 04:25:40;;;;;;;3.00;1.60;;;;;;;;;;5083942;28;20490;-69
2021/05/15 04:28:07;;;;;;;3.70;2.30;;;;;;;;;;5090147;28;20475;-69
2021/05/15 04:30:36;;;;;;;1.73;1.60;;;;;;;;;;5089413;28;20464;-69
2021/05/15 04:33:02;;;;;;;5.83;2.07;;;;;;;;;;5089939;28;20437;-71
2021/05/15 04:35:32;;;;;;;3.57;2.13;;;;;;;;;;5086512;28;20419;-71
2021/05/15 04:37:58;;;;;;;2.50;1.07;;;;;;;;;;5089919;28;20433;-71
2021/05/15 04:40:24;;;;;;;3.20;1.00;;;;;;;;;;5087999;28;20433;-70
2021/05/15 04:42:50;;;;;;;2.73;2.33;;;;;;;;;;5090008;28;21045;-70
2021/05/15 04:45:16;;;;;;;3.03;2.20;;;;;;;;;;5089513;28;20465;-71
2021/05/15 04:47:42;;;;;;;1.23;1.10;;;;;;;;;;5090094;28;20466;-71
2021/05/15 04:50:09;;;;;;;2.73;1.50;;;;;;;;;;5090586;28;20413;-69
2021/05/15 04:52:35;;;;;;;2.23;1.50;;;;;;;;;;5093175;28;20372;-70
2021/05/15 04:55:01;;;;;;;1.93;1.30;;;;;;;;;;5092952;28;20481;-69
2021/05/15 04:57:27;;;;;;;2.37;1.63;;;;;;;;;;5093318;28;20421;-70
2021/05/15 04:59:53;;;;;;;3.47;1.33;;;;;;;;;;5092449;28;20476;-70
2021/05/15 05:02:18;;;;;;;2.00;1.40;;;;;;;;;;5093221;28;20412;-72
2021/05/15 05:04:44;;;;;;;1.70;1.30;;;;;;;;;;5093225;28;20467;-70
2021/05/15 05:07:10;;;;;;;1.80;1.27;;;;;;;;;;5092571;28;20387;-70
2021/05/15 05:09:36;;;;;;;1.83;1.73;;;;;;;;;;5088931;28;20476;-70
2021/05/15 05:12:02;;;;;;;1.10;0.80;;;;;;;;;;5081716;28;20514;-67
2021/05/15 05:14:28;;;;;;;2.80;0.97;;;;;;;;;;5084896;28;20419;-70
2021/05/15 05:16:55;;;;;;;1.27;1.17;;;;;;;;;;5085803;28;20468;-69
2021/05/15 05:19:22;;;;;;;1.63;1.13;;;;;;;;;;5076951;28;20453;-71
2021/05/15 05:21:48;;;;;;;8.83;1.33;;;;;;;;;;5077767;28;20415;-69
2021/05/15 05:24:14;;;;;;;8.20;1.57;;;;;;;;;;5081052;28;20452;-69
2021/05/15 05:26:40;;;;;;;2.63;1.80;;;;;;;;;;5085764;28;20494;-70
2021/05/15 05:29:09;;;;;;;1.77;1.00;;;;;;;;;;5080418;28;20390;-70
2021/05/15 05:31:39;;;;;;;5.37;2.67;;;;;;;;;;5084492;28;20867;-71
2021/05/15 05:34:06;;;;;;;3.73;1.30;;;;;;;;;;5078259;28;20384;-71
2021/05/15 05:36:32;;;;;;;1.83;0.97;;;;;;;;;;5090076;28;20482;-70
2021/05/15 05:38:58;;;;;;;3.10;1.37;;;;;;;;;;5092465;28;20874;-69
2021/05/15 05:41:25;;;;;;;0.80;0.60;;;;;;;;;;5092073;28;20501;-69
2021/05/15 05:43:51;;;;;;;4.70;1.97;;;;;;;;;;5092505;28;20492;-69
2021/05/15 05:46:17;;;;;;;6.80;2.77;;;;;;;;;;5092576;28;20476;-69
2021/05/15 05:48:43;;;;;;;4.67;1.77;;;;;;;;;;5092855;28;20502;-72
2021/05/15 05:51:09;;;;;;;7.13;2.40;;;;;;;;;;5090882;28;20904;-68
2021/05/15 05:53:35;;;;;;;2.37;2.00;;;;;;;;;;5088721;28;20439;-69
2021/05/15 05:56:02;;;;;;;6.57;1.37;;;;;;;;;;5086364;28;20764;-68
2021/05/15 05:58:28;;;;;;;1.40;1.10;;;;;;;;;;5087440;28;20380;-69
2021/05/15 06:00:54;;;;;;;9.40;1.63;;;;;;;;;;5088548;28;20825;-70
2021/05/15 06:03:20;;;;;;;8.73;2.07;;;;;;;;;;5082789;28;20979;-69
2021/05/15 06:05:46;;;;;;;10.03;1.67;;;;;;;;;;5082594;28;20691;-69
2021/05/15 06:08:14;;;;;;;1.60;1.17;;;;;;;;;;5092059;28;20474;-69
2021/05/15 06:10:40;;;;;;;1.70;1.30;;;;;;;;;;5090499;28;20441;-70
2021/05/15 06:13:07;;;;;;;4.87;2.83;;;;;;;;;;5078806;28;20791;-68
2021/05/15 06:15:33;;;;;;;3.53;1.07;;;;;;;;;;5091478;28;20390;-68
2021/05/15 06:17:59;;;;;;;3.53;2.53;;;;;;;;;;5092022;28;20503;-67
2021/05/15 06:20:25;;;;;;;4.20;2.33;;;;;;;;;;5091304;28;20555;-68
2021/05/15 06:22:51;;;;;;;1.90;1.00;;;;;;;;;;5091806;28;20839;-67
2021/05/15 06:25:17;;;;;;;1.20;0.93;;;;;;;;;;5084769;28;20555;-69
2021/05/15 06:27:43;;;;;;;4.90;1.77;;;;;;;;;;5073672;28;20769;-68
2021/05/15 06:30:09;;;;;;;5.17;1.93;;;;;;;;;;5088467;28;20577;-68
2021/05/15 06:32:35;;;;;;;2.27;1.00;;;;;;;;;;5092232;28;20780;-69
2021/05/15 06:35:01;;;;;;;3.60;2.20;;;;;;;;;;5085171;28;20413;-69
2021/05/15 06:37:27;;;;;;;3.47;2.60;;;;;;;;;;5077200;28;20414;-69
2021/05/15 06:39:53;;;;;;;5.90;2.27;;;;;;;;;;5054716;28;20431;-68
2021/05/15 06:42:19;;;;;;;1.67;1.13;;;;;;;;;;5085513;28;20442;-69
2021/05/15 06:44:47;;;;;;;2.20;1.10;;;;;;;;;;5091514;28;20482;-69
2021/05/15 06:47:13;;;;;;;2.40;1.20;;;;;;;;;;5091617;28;20979;-70
2021/05/15 06:49:39;;;;;;;5.40;1.70;;;;;;;;;;5091388;28;20517;-69
2021/05/15 06:52:05;;;;;;;5.63;2.90;;;;;;;;;;5091205;28;20417;-70
2021/05/15 06:54:31;;;;;;;2.27;1.33;;;;;;;;;;5091367;28;20473;-69
2021/05/15 06:56:57;;;;;;;2.63;1.50;;;;;;;;;;5091391;28;20566;-71
2021/05/15 06:59:23;;;;;;;2.53;2.20;;;;;;;;;;5086783;28;20467;-69
2021/05/15 07:01:49;;;;;;;2.80;2.27;;;;;;;;;;5082867;28;20826;-69
2021/05/15 07:04:15;;;;;;;3.80;2.53;;;;;;;;;;5083864;28;20452;-69
2021/05/15 07:06:41;;;;;;;2.60;2.20;;;;;;;;;;5086195;28;20412;-69
2021/05/15 07:09:07;;;;;;;2.90;1.43;;;;;;;;;;5090233;28;20432;-69
2021/05/15 07:11:33;;;;;;;1.67;1.53;;;;;;;;;;5091301;28;20824;-64
2021/05/15 07:13:59;;;;;;;3.13;1.67;;;;;;;;;;5091545;28;20743;-70
2021/05/15 07:16:25;;;;;;;6.30;2.57;;;;;;;;;;5090735;28;20391;-68
2021/05/15 07:18:51;;;;;;;2.83;2.30;;;;;;;;;;5089968;28;20416;-69
2021/05/15 07:21:16;;;;;;;7.70;4.30;;;;;;;;;;5081517;28;20908;-71
2021/05/15 07:23:42;;;;;;;6.13;3.13;;;;;;;;;;5080986;28;20463;-70
2021/05/15 07:26:10;;;;;;;3.43;2.40;;;;;;;;;;5080566;28;20444;-70
2021/05/15 07:28:36;;;;;;;3.77;1.93;;;;;;;;;;5083467;28;20416;-71
2021/05/15 07:31:02;;;;;;;3.90;2.10;;;;;;;;;;5078131;28;20414;-68
2021/05/15 07:33:28;;;;;;;2.90;1.53;;;;;;;;;;5069697;28;20444;-70
2021/05/15 07:35:54;;;;;;;2.30;2.10;;;;;;;;;;5081230;28;20437;-69
2021/05/15 07:38:22;;;;;;;4.07;2.40;;;;;;;;;;5080926;28;20633;-67
2021/05/15 07:40:48;;;;;;;3.90;1.70;;;;;;;;;;5077209;28;20958;-68
2021/05/15 07:43:15;;;;;;;3.57;2.77;;;;;;;;;;5069657;28;20450;-68
2021/05/15 07:45:41;;;;;;;4.70;2.00;;;;;;;;;;5076056;28;20384;-67
2021/05/15 07:48:07;;;;;;;6.00;2.90;;;;;;;;;;5083401;28;20768;-68
2021/05/15 07:50:33;;;;;;;2.70;1.70;;;;;;;;;;5080304;28;20397;-68
2021/05/15 07:52:59;;;;;;;6.53;2.60;;;;;;;;;;5082253;28;20421;-69
2021/05/15 07:55:25;;;;;;;3.17;2.30;;;;;;;;;;5082689;28;20414;-69
2021/05/15 07:57:51;;;;;;;3.37;2.70;;;;;;;;;;5085807;28;20416;-71
2021/05/15 08:00:17;;;;;;;3.60;2.17;;;;;;;;;;5083681;28;20470;-68
2021/05/15 08:02:43;;;;;;;8.40;3.87;;;;;;;;;;5085131;28;20372;-71
2021/05/15 08:05:10;;;;;;;6.70;3.10;;;;;;;;;;5065013;28;20456;-69
2021/05/15 08:07:36;;;;;;;4.53;3.23;;;;;;;;;;5079922;28;20898;-70
2021/05/15 08:10:03;;;;;;;5.07;2.90;;;;;;;;;;5095024;22;20485;-69
2021/05/15 08:12:29;;;;;;;9.00;4.30;;;;;;;;;;5097956;28;20757;-68
2021/05/15 08:14:55;;;;;;;4.53;2.83;;;;;;;;;;5089839;28;20396;-69
2021/05/15 08:17:21;;;;;;;6.63;4.10;;;;;;;;;;5089868;28;20806;-70
2021/05/15 08:19:47;;;;;;;4.00;2.43;;;;;;;;;;5077488;28;20436;-70
2021/05/15 08:22:13;;;;;;;4.40;2.13;;;;;;;;;;5079983;28;20390;-69
2021/05/15 08:24:39;;;;;;;1.63;1.53;;;;;;;;;;5081224;28;20601;-69
2021/05/15 08:27:05;;;;;;;4.07;3.67;;;;;;;;;;5084330;28;20896;-69
2021/05/15 08:29:33;;;;;;;10.17;5.63;;;;;;;;;;5082274;28;20409;-69
2021/05/15 08:31:59;;;;;;;5.03;2.60;;;;;;;;;;5072947;28;20442;-69
2021/05/15 08:34:25;;;;;;;4.10;2.20;;;;;;;;;;5071101;28;20777;-69
2021/05/15 08:36:51;;;;;;;3.50;2.93;;;;;;;;;;5081428;28;20911;-69
2021/05/15 08:39:17;;;;;;;3.37;2.10;;;;;;;;;;5078912;28;20409;-69
2021/05/15 08:41:45;;;;;;;11.13;4.07;;;;;;;;;;5075267;28;20445;-69
2021/05/15 08:44:12;;;;;;;3.93;3.17;;;;;;;;;;5083909;28;20455;-69
2021/05/15 08:46:40;;;;;;;7.60;4.63;;;;;;;;;;5091260;28;20457;-69
2021/05/15 08:49:08;;;;;;;4.40;2.20;;;;;;;;;;5092272;28;20413;-68
2021/05/15 08:51:34;;;;;;;7.50;2.77;;;;;;;;;;5086776;28;20439;-69
2021/05/15 08:54:00;;;;;;;9.80;4.67;;;;;;;;;;5076670;28;20386;-68
2021/05/15 08:56:27;;;;;;;8.00;3.70;;;;;;;;;;5069183;28;20925;-68
2021/05/15 08:58:54;;;;;;;5.83;2.33;;;;;;;;;;5093054;28;20424;-71
2021/05/15 09:01:20;;;;;;;4.30;2.80;;;;;;;;;;5092687;28;20402;-70
2021/05/15 09:03:47;;;;;;;5.77;2.00;;;;;;;;;;5085242;28;20509;-70
2021/05/15 09:06:13;;;;;;;4.37;2.27;;;;;;;;;;5085368;28;20385;-70
2021/05/15 09:08:39;;;;;;;2.50;1.80;;;;;;;;;;5075368;28;20755;-70
2021/05/15 09:11:05;;;;;;;8.23;3.40;;;;;;;;;;5085640;28;20516;-69
2021/05/15 09:13:31;;;;;;;5.10;2.63;;;;;;;;;;5070116;28;20430;-69
2021/05/15 09:15:59;;;;;;;5.73;3.33;;;;;;;;;;5080589;28;20955;-71
2021/05/15 09:18:26;;;;;;;8.30;2.43;;;;;;;;;;5054958;28;20425;-70
2021/05/15 09:20:54;;;;;;;4.23;3.13;;;;;;;;;;5071607;28;20425;-71
2021/05/15 09:23:21;;;;;;;3.83;2.57;;;;;;;;;;5072055;28;20410;-69
2021/05/15 09:26:04;;;;;;;6.33;3.40;;;;;;;;;;5071175;28;20468;-69
2021/05/15 09:28:34;;;;;;;5.57;2.97;;;;;;;;;;5055397;28;20413;-69
2021/05/15 09:31:32;;;;;;;6.33;2.50;;;;;;;;;;5053844;28;20514;-69
2021/05/15 09:34:01;;;;;;;4.67;2.67;;;;;;;;;;5010204;28;20419;-69
2021/05/15 09:36:31;;;;;;;4.50;3.20;;;;;;;;;;5078201;28;20849;-70
2021/05/15 09:39:03;;;;;;;4.10;2.83;;;;;;;;;;5073282;28;20437;-69
2021/05/15 09:41:33;;;;;;;7.43;4.03;;;;;;;;;;5092404;28;20448;-70
2021/05/15 09:43:59;;;;;;;3.33;2.33;;;;;;;;;;5092795;28;20451;-70
2021/05/15 09:46:26;;;;;;;5.57;2.70;;;;;;;;;;5078446;28;20406;-69
2021/05/15 09:48:55;;;;;;;3.93;3.37;;;;;;;;;;5072122;28;20430;-69
2021/05/15 09:51:21;;;;;;;8.13;4.30;;;;;;;;;;5066319;28;20443;-70
2021/05/15 09:53:47;;;;;;;4.27;3.37;;;;;;;;;;5060972;28;20419;-69
2021/05/15 09:56:13;;;;;;;12.67;4.27;;;;;;;;;;5064788;28;20422;-70
2021/05/15 09:58:40;;;;;;;3.13;2.83;;;;;;;;;;5052125;28;20462;-71
2021/05/15 10:01:07;;;;;;;6.30;3.20;;;;;;;;;;5061892;28;20438;-69
2021/05/15 10:03:33;;;;;;;5.77;2.90;;;;;;;;;;5062675;28;20462;-70
2021/05/15 10:06:06;;;;;;;3.53;2.10;;;;;;;;;;5052830;28;20465;-70
2021/05/15 10:08:33;;;;;;;4.90;3.60;;;;;;;;;;5062609;28;20434;-70
2021/05/15 10:11:00;;;;;;;7.33;3.10;;;;;;;;;;5059400;28;20450;-70
2021/05/15 10:13:26;;;;;;;4.37;3.73;;;;;;;;;;5061918;28;20415;-70
2021/05/15 10:15:52;;;;;;;4.23;3.50;;;;;;;;;;5063191;28;20450;-70
2021/05/15 10:18:18;;;;;;;5.10;2.93;;;;;;;;;;5061885;28;20481;-69
2021/05/15 10:20:44;;;;;;;4.97;3.10;;;;;;;;;;5080611;28;20441;-69
2021/05/15 10:23:18;;;;;;;4.57;2.80;;;;;;;;;;5072473;28;20481;-70
2021/05/15 10:25:44;;;;;;;6.50;3.27;;;;;;;;;;5063595;28;20419;-69
2021/05/15 10:28:10;;;;;;;4.87;2.60;;;;;;;;;;5051639;28;20391;-70
2021/05/15 10:30:36;;;;;;;6.33;3.43;;;;;;;;;;5083742;28;20437;-70
2021/05/15 10:33:07;;;;;;;11.60;3.60;;;;;;;;;;5088398;28;21213;-70
2021/05/15 10:35:44;;;;;;;1.57;1.40;;;;;;;;;;5062227;28;20475;-70
2021/05/15 10:38:12;;;;;;;7.63;3.50;;;;;;;;;;5088809;28;20867;-70
2021/05/15 10:40:43;;;;;;;5.60;3.57;;;;;;;;;;5086980;28;20463;-70
2021/05/15 10:43:09;;;;;;;5.80;3.33;;;;;;;;;;5091484;28;20481;-70
2021/05/15 10:45:36;;;;;;;8.53;3.03;;;;;;;;;;5082585;28;20501;-70
2021/05/15 10:48:12;;;;;;;3.43;2.07;;;;;;;;;;5071019;28;20410;-70
2021/05/15 10:50:48;;;;;;;4.03;2.23;;;;;;;;;;5085975;28;20456;-70
2021/05/15 10:53:18;;;;;;;4.03;2.70;;;;;;;;;;5070447;28;20410;-69
2021/05/15 10:55:44;;;;;;;4.13;2.13;;;;;;;;;;5082236;28;20911;-70
2021/05/15 10:58:11;;;;;;;1.97;1.30;;;;;;;;;;5090538;28;20410;-69
2021/05/15 11:00:37;;;;;;;6.13;3.07;;;;;;;;;;5075395;28;20831;-70
2021/05/15 11:03:03;;;;;;;5.13;2.53;;;;;;;;;;5073770;28;20421;-70
2021/05/15 11:05:41;;;;;;;8.63;2.60;;;;;;;;;;5081197;28;20448;-70
2021/05/15 11:08:07;;;;;;;2.97;2.17;;;;;;;;;;5074918;28;20410;-69
2021/05/15 11:10:36;;;;;;;4.33;2.40;;;;;;;;;;5089367;28;20594;-69
2021/05/15 11:13:08;;;;;;;4.30;1.80;;;;;;;;;;5082473;28;20442;-70
2021/05/15 11:15:34;;;;;;;2.83;1.50;;;;;;;;;;5073987;28;20410;-69
2021/05/15 11:18:09;;;;;;;5.37;2.67;;;;;;;;;;5070786;28;20881;-69
2021/05/15 11:20:44;;;;;;;2.37;1.50;;;;;;;;;;5073805;28;20483;-70
2021/05/15 11:23:20;;;;;;;4.20;2.07;;;;;;;;;;5076728;28;20424;-70
2021/05/15 11:25:53;;;;;;;3.03;2.17;;;;;;;;;;5071759;28;20477;-70
2021/05/15 11:28:23;;;;;;;3.83;2.13;;;;;;;;;;5070551;28;20415;-70
2021/05/15 11:30:49;;;;;;;8.20;1.93;;;;;;;;;;5069430;28;20441;-70
2021/05/15 11:33:18;;;;;;;5.43;2.93;;;;;;;;;;5069121;28;20398;-69
2021/05/15 11:35:54;;;;;;;5.23;2.63;;;;;;;;;;5081811;28;20413;-70
2021/05/15 11:38:27;;;;;;;5.83;2.33;;;;;;;;;;5090704;28;20428;-70
2021/05/15 11:40:57;;;;;;;7.93;2.90;;;;;;;;;;5089908;28;20971;-70
2021/05/15 11:43:24;;;;;;;2.73;1.87;;;;;;;;;;5090383;28;20421;-71
2021/05/15 11:45:51;;;;;;;2.27;1.83;;;;;;;;;;5076116;28;20417;-70
2021/05/15 11:48:22;;;;;;;5.50;4.00;;;;;;;;;;5070339;28;20390;-70
2021/05/15 11:51:01;;;;;;;3.53;1.80;;;;;;;;;;5069548;28;20417;-71
2021/05/15 11:53:27;;;;;;;3.20;2.90;;;;;;;;;;5070176;28;20763;-69
2021/05/15 11:55:54;;;;;;;3.63;2.17;;;;;;;;;;5072634;28;20497;-71
2021/05/15 11:58:20;;;;;;;3.63;2.47;;;;;;;;;;5070302;28;20398;-69
2021/05/15 12:00:46;;;;;;;11.43;2.50;;;;;;;;;;5054067;28;20426;-69
2021/05/15 12:03:13;;;;;;;3.80;2.33;;;;;;;;;;5062382;28;20454;-70
2021/05/15 12:05:39;;;;;;;4.93;4.00;;;;;;;;;;5077019;28;20795;-70
2021/05/15 12:08:12;;;;;;;3.60;2.00;;;;;;;;;;5074287;28;20398;-70
2021/05/15 12:10:39;;;;;;;3.63;2.20;;;;;;;;;;5073687;28;20442;-70
2021/05/15 12:13:05;;;;;;;8.50;2.70;;;;;;;;;;5090441;28;20413;-70
2021/05/15 12:15:32;;;;;;;4.47;2.60;;;;;;;;;;5081793;28;20417;-70
2021/05/15 12:17:59;;;;;;;4.47;2.73;;;;;;;;;;5073857;28;20409;-70
2021/05/15 12:20:51;;;;;;;3.33;1.87;;;;;;;;;;5072258;28;20426;-70
2021/05/15 12:23:20;;;;;;;3.17;1.97;;;;;;;;;;5059454;28;20515;-69
2021/05/15 12:25:56;;;;;;;3.43;2.03;;;;;;;;;;5082147;28;20419;-69
2021/05/15 12:28:24;;;;;;;3.27;2.23;;;;;;;;;;5078546;28;20411;-70
2021/05/15 12:30:50;;;;;;;1.73;1.27;;;;;;;;;;5074035;28;20421;-69
2021/05/15 12:33:20;;;;;;;2.30;1.60;;;;;;;;;;5078225;28;20878;-70
2021/05/15 12:36:00;;;;;;;2.70;2.50;;;;;;;;;;5090082;28;20408;-70
2021/05/15 12:38:26;;;;;;;3.03;2.70;;;;;;;;;;5084450;28;20830;-70
2021/05/15 12:40:52;;;;;;;3.13;2.40;;;;;;;;;;5083926;28;20420;-69
2021/05/15 12:43:22;;;;;;;4.13;2.23;;;;;;;;;;5076502;28;20410;-70
2021/05/15 12:45:49;;;;;;;3.83;2.13;;;;;;;;;;5074142;28;20406;-69
2021/05/15 12:48:39;;;;;;;8.00;3.43;;;;;;;;;;5081710;28;20433;-71
2021/05/15 12:51:06;;;;;;;2.80;1.67;;;;;;;;;;5088881;28;20459;-70
2021/05/15 12:53:32;;;;;;;3.07;1.70;;;;;;;;;;5087184;28;20780;-69
2021/05/15 12:55:58;;;;;;;2.53;1.97;;;;;;;;;;5073245;28;20398;-70
2021/05/15 12:58:25;;;;;;;2.60;2.10;;;;;;;;;;5073102;28;20420;-69
2021/05/15 13:00:55;;;;;;;2.07;1.93;;;;;;;;;;5072529;28;20437;-68
2021/05/15 13:03:22;;;;;;;2.50;1.43;;;;;;;;;;5075828;28;20413;-70
2021/05/15 13:05:49;;;;;;;1.93;1.50;;;;;;;;;;5083467;28;20984;-70
2021/05/15 13:08:15;;;;;;;5.07;2.10;;;;;;;;;;5084101;28;20401;-70
2021/05/15 13:10:41;;;;;;;2.97;1.83;;;;;;;;;;5091851;28;20791;-70
2021/05/15 13:13:07;;;;;;;4.40;1.87;;;;;;;;;;5092660;28;20476;-70
2021/05/15 13:15:33;;;;;;;2.73;1.93;;;;;;;;;;5079916;28;20490;-69
2021/05/15 13:18:19;;;;;;;4.33;2.07;;;;;;;;;;5060201;28;20393;-70
2021/05/15 13:20:46;;;;;;;6.87;3.83;;;;;;;;;;5071007;28;20445;-70
2021/05/15 13:23:12;;;;;;;3.27;2.60;;;;;;;;;;5082527;28;20439;-70
2021/05/15 13:25:38;;;;;;;3.87;2.57;;;;;;;;;;5087052;28;20541;-71
2021/05/15 13:28:04;;;;;;;4.00;2.63;;;;;;;;;;5080123;28;20396;-70
2021/05/15 13:30:30;;;;;;;4.83;1.77;;;;;;;;;;5072424;28;20887;-71
2021/05/15 13:32:56;;;;;;;3.33;2.97;;;;;;;;;;5070431;28;20473;-70
2021/05/15 13:35:22;;;;;;;3.23;2.27;;;;;;;;;;5078296;28;20422;-71
2021/05/15 13:37:48;;;;;;;3.53;1.83;;;;;;;;;;5074040;28;20487;-70
2021/05/15 13:40:14;;;;;;;2.07;1.47;;;;;;;;;;5071717;28;20422;-71
2021/05/15 13:42:40;;;;;;;4.50;4.00;;;;;;;;;;5079762;28;20782;-72
2021/05/15 13:45:07;;;;;;;5.20;2.40;;;;;;;;;;5085775;28;20526;-70
2021/05/15 13:47:33;;;;;;;3.43;1.77;;;;;;;;;;5092576;28;20833;-70
2021/05/15 13:49:59;;;;;;;3.23;1.30;;;;;;;;;;5091994;28;20516;-71
2021/05/15 13:52:25;;;;;;;2.00;1.63;;;;;;;;;;5076868;28;20419;-72
2021/05/15 13:54:52;;;;;;;1.33;1.00;;;;;;;;;;5089626;28;20388;-69
2021/05/15 13:57:18;;;;;;;1.30;1.20;;;;;;;;;;5079112;28;20926;-70
2021/05/15 13:59:45;;;;;;;1.20;0.97;;;;;;;;;;5073973;28;20477;-70
2021/05/15 14:02:11;;;;;;;1.60;1.20;;;;;;;;;;5085023;28;20407;-69
2021/05/15 14:04:37;;;;;;;1.40;1.00;;;;;;;;;;5060979;28;20966;-70
2021/05/15 14:07:03;;;;;;;1.10;0.93;;;;;;;;;;5080869;28;20948;-70
2021/05/15 14:09:29;;;;;;;0.77;0.70;;;;;;;;;;5082346;28;20438;-70
2021/05/15 14:11:55;;;;;;;0.70;0.50;;;;;;;;;;5088875;22;20472;-76
2021/05/15 14:14:21;;;;;;;0.80;0.60;;;;;;;;;;5082893;28;20803;-76
2021/05/15 14:16:52;;;;;;;0.80;0.60;;;;;;;;;;5084653;28;20386;-76
2021/05/15 14:19:18;;;;;;;0.87;0.57;;;;;;;;;;5090359;28;20453;-76
2021/05/15 14:21:44;;;;;;;1.27;0.60;;;;;;;;;;5096623;28;20449;-80
2021/05/15 14:24:10;;;;;;;1.30;1.00;;;;;;;;;;5067802;28;20489;-77
2021/05/15 14:26:36;;;;;;;1.50;0.80;;;;;;;;;;5097194;28;20393;-78
2021/05/15 14:29:02;;;;;;;1.27;0.70;;;;;;;;;;5080419;28;20820;-82
2021/05/15 14:38:04;;;;;;;1.20;0.60;;;;;;;;;;5012912;28;20455;-79
2021/05/15 14:40:33;;;;;;;0.80;0.60;;;;;;;;;;5003804;28;20440;-79
2021/05/15 14:43:25;;;;;;;1.00;0.90;;;;;;;;;;4995976;28;20398;-79
2021/05/15 14:46:38;;;;;;;0.80;0.50;;;;;;;;;;4983370;28;20388;-79
2021/05/15 14:49:24;;;;;;;1.00;0.80;;;;;;;;;;4976687;28;20401;-80
2021/05/15 14:51:50;;;;;;;1.13;0.93;;;;;;;;;;4973696;28;20419;-79
2021/05/15 14:54:16;;;;;;;1.87;0.83;;;;;;;;;;4983761;28;20446;-79
2021/05/15 14:56:44;;;;;;;1.03;0.90;;;;;;;;;;4983770;28;20822;-79
2021/05/15 14:59:10;;;;;;;1.93;1.10;;;;;;;;;;4977385;28;20423;-78